createdAt,value
2018-09-17T00:02:24.842Z,21.18
2018-09-17T00:04:52.637Z,20.96
2018-09-17T00:07:20.371Z,20.73
2018-09-17T00:09:48.039Z,20.94
2018-09-17T00:12:15.750Z,21.07
2018-09-17T00:14:43.430Z,21.05
2018-09-17T00:17:11.125Z,21.12
2018-09-17T00:19:38.834Z,21.27
2018-09-17T00:22:06.503Z,21.39
2018-09-17T00:24:34.181Z,21.26
2018-09-17T00:27:01.940Z,21.17
2018-09-17T00:29:29.598Z,21.09
2018-09-17T00:31:57.284Z,21.27
2018-09-17T00:34:24.989Z,21.20
2018-09-17T00:36:52.678Z,21.41
2018-09-17T00:39:20.372Z,21.24
2018-09-17T00:41:48.079Z,21.27
2018-09-17T00:44:15.734Z,21.27
2018-09-17T00:46:43.423Z,21.20
2018-09-17T00:49:11.137Z,21.20
2018-09-17T00:51:38.841Z,20.98
2018-09-17T00:54:06.529Z,21.03
2018-09-17T00:56:34.236Z,20.90
2018-09-17T00:59:01.934Z,20.73
2018-09-17T01:01:29.579Z,20.57
2018-09-17T01:03:57.274Z,20.64
2018-09-17T01:06:24.917Z,20.42
2018-09-17T01:08:52.714Z,20.33
2018-09-17T01:11:20.426Z,20.27
2018-09-17T01:13:48.107Z,20.26
2018-09-17T01:16:15.797Z,20.32
2018-09-17T01:18:43.518Z,20.25
2018-09-17T01:21:11.177Z,20.14
2018-09-17T01:23:38.858Z,20.15
2018-09-17T01:26:06.546Z,20.16
2018-09-17T01:28:34.203Z,20.09
2018-09-17T01:31:01.895Z,19.96
2018-09-17T01:33:29.598Z,19.90
2018-09-17T01:35:57.295Z,19.86
2018-09-17T01:38:24.959Z,19.90
2018-09-17T01:40:52.750Z,19.87
2018-09-17T01:43:20.507Z,19.84
2018-09-17T01:45:48.197Z,19.78
2018-09-17T01:48:15.878Z,19.78
2018-09-17T01:50:43.583Z,19.74
2018-09-17T01:53:11.243Z,19.78
2018-09-17T01:55:38.958Z,19.75
2018-09-17T01:58:06.617Z,19.69
2018-09-17T02:00:34.285Z,19.50
2018-09-17T02:03:02.012Z,19.42
2018-09-17T02:05:29.677Z,19.32
2018-09-17T02:07:57.327Z,19.35
2018-09-17T02:10:25.058Z,19.22
2018-09-17T02:12:52.739Z,19.06
2018-09-17T02:15:20.393Z,19.15
2018-09-17T02:17:48.094Z,19.17
2018-09-17T02:20:15.760Z,19.16
2018-09-17T02:22:43.462Z,19.20
2018-09-17T02:25:11.145Z,19.00
2018-09-17T02:27:38.828Z,18.73
2018-09-17T02:30:06.486Z,18.86
2018-09-17T02:32:34.169Z,18.56
2018-09-17T02:35:01.878Z,18.33
2018-09-17T02:37:29.553Z,18.33
2018-09-17T02:39:57.310Z,17.91
2018-09-17T02:42:24.982Z,18.03
2018-09-17T02:44:52.642Z,18.19
2018-09-17T02:47:20.329Z,18.32
2018-09-17T02:49:48.011Z,18.52
2018-09-17T02:52:15.684Z,18.56
2018-09-17T02:54:43.374Z,18.72
2018-09-17T02:57:11.017Z,18.73
2018-09-17T02:59:38.697Z,18.90
2018-09-17T03:02:06.414Z,18.99
2018-09-17T03:04:34.146Z,19.17
2018-09-17T03:07:01.767Z,19.25
2018-09-17T03:09:29.474Z,19.40
2018-09-17T03:11:57.146Z,19.32
2018-09-17T03:14:28.371Z,19.18
2018-09-17T03:17:08.407Z,19.16
2018-09-17T03:19:36.137Z,19.14
2018-09-17T03:22:03.813Z,18.91
2018-09-17T03:24:31.602Z,19.05
2018-09-17T03:26:59.311Z,19.29
2018-09-17T03:29:27.013Z,19.30
2018-09-17T03:31:54.734Z,19.33
2018-09-17T03:34:22.414Z,19.35
2018-09-17T03:36:50.081Z,19.38
2018-09-17T03:39:17.780Z,19.41
2018-09-17T03:41:45.463Z,19.43
2018-09-17T03:44:13.141Z,19.31
2018-09-17T03:46:40.955Z,19.32
2018-09-17T03:49:08.570Z,19.19
2018-09-17T03:51:36.251Z,19.10
2018-09-17T03:54:04.001Z,19.19
2018-09-17T03:56:31.682Z,19.23
2018-09-17T03:58:59.405Z,19.09
2018-09-17T04:01:27.093Z,19.13
2018-09-17T04:03:54.768Z,19.21
2018-09-17T04:06:22.444Z,19.17
2018-09-17T04:08:50.150Z,18.86
2018-09-17T04:11:17.855Z,18.60
2018-09-17T04:13:45.528Z,18.60
2018-09-17T04:16:13.209Z,18.59
2018-09-17T04:18:40.896Z,18.81
2018-09-17T04:21:08.573Z,18.80
2018-09-17T04:23:37.221Z,18.56
2018-09-17T04:26:07.405Z,18.60
2018-09-17T04:28:35.474Z,18.80
2018-09-17T04:31:03.251Z,18.98
2018-09-17T04:33:34.081Z,19.20
2018-09-17T04:36:01.785Z,19.18
2018-09-17T04:38:29.493Z,19.36
2018-09-17T04:40:57.197Z,19.38
2018-09-17T04:43:24.932Z,19.52
2018-09-17T04:45:52.682Z,19.73
2018-09-17T04:48:20.355Z,19.80
2018-09-17T04:50:48.013Z,20.19
2018-09-17T04:53:15.736Z,21.11
2018-09-17T04:55:43.414Z,21.66
2018-09-17T04:58:11.099Z,22.92
2018-09-17T05:00:38.839Z,23.73
2018-09-17T05:03:06.538Z,24.11
2018-09-17T05:05:34.198Z,24.13
2018-09-17T05:08:01.892Z,22.94
2018-09-17T05:10:29.554Z,23.72
2018-09-17T05:12:57.385Z,23.43
2018-09-17T05:15:25.083Z,22.57
2018-09-17T05:17:52.759Z,22.09
2018-09-17T05:20:20.419Z,21.68
2018-09-17T05:22:48.137Z,22.15
2018-09-17T05:25:15.801Z,23.84
2018-09-17T05:27:43.470Z,24.71
2018-09-17T05:30:11.174Z,25.13
2018-09-17T05:32:38.846Z,26.37
2018-09-17T05:35:06.600Z,26.48
2018-09-17T05:37:34.286Z,25.41
2018-09-17T05:40:01.959Z,25.59
2018-09-17T05:42:29.633Z,26.60
2018-09-17T05:44:57.356Z,26.94
2018-09-17T05:47:25.046Z,27.09
2018-09-17T05:49:52.729Z,27.23
2018-09-17T05:52:20.415Z,27.39
2018-09-17T05:54:48.083Z,26.56
2018-09-17T05:57:15.755Z,25.82
2018-09-17T05:59:43.518Z,25.09
2018-09-17T06:02:11.218Z,25.45
2018-09-17T06:04:38.918Z,25.75
2018-09-17T06:07:06.652Z,25.64
2018-09-17T06:09:34.390Z,25.51
2018-09-17T06:12:02.039Z,25.96
2018-09-17T06:14:29.845Z,26.13
2018-09-17T06:16:57.517Z,26.34
2018-09-17T06:19:25.364Z,26.49
2018-09-17T06:21:53.098Z,26.63
2018-09-17T06:24:20.758Z,26.40
2018-09-17T06:26:48.432Z,26.56
2018-09-17T06:29:16.138Z,26.53
2018-09-17T06:31:43.880Z,26.29
2018-09-17T06:34:11.551Z,26.39
2018-09-17T06:36:39.240Z,26.57
2018-09-17T06:39:08.299Z,26.64
2018-09-17T06:41:36.006Z,26.09
2018-09-17T06:44:03.770Z,26.10
2018-09-17T06:46:31.469Z,26.65
2018-09-17T06:48:59.194Z,26.09
2018-09-17T06:51:26.944Z,26.60
2018-09-17T06:53:54.644Z,27.17
2018-09-17T06:56:22.319Z,26.91
2018-09-17T06:58:50.095Z,26.68
2018-09-17T07:01:17.786Z,26.46
2018-09-17T07:03:45.521Z,26.42
2018-09-17T07:06:13.218Z,26.25
2018-09-17T07:08:40.901Z,26.45
2018-09-17T07:11:09.101Z,26.17
2018-09-17T07:13:36.793Z,25.53
2018-09-17T07:16:04.817Z,26.69
2018-09-17T07:18:32.522Z,27.00
2018-09-17T07:21:00.232Z,27.19
2018-09-17T07:23:27.925Z,27.42
2018-09-17T07:25:55.621Z,27.27
2018-09-17T07:28:23.713Z,27.18
2018-09-17T07:30:51.350Z,27.38
2018-09-17T07:33:19.197Z,27.11
2018-09-17T07:35:46.915Z,26.02
2018-09-17T07:38:14.623Z,26.65
2018-09-17T07:40:42.340Z,27.18
2018-09-17T07:43:10.034Z,27.07
2018-09-17T07:45:37.722Z,27.02
2018-09-17T07:48:05.447Z,26.92
2018-09-17T07:50:33.160Z,26.48
2018-09-17T07:53:00.853Z,26.00
2018-09-17T07:55:28.571Z,25.87
2018-09-17T07:57:56.265Z,26.34
2018-09-17T08:00:23.992Z,26.26
2018-09-17T08:02:51.683Z,26.49
2018-09-17T08:05:19.394Z,26.82
2018-09-17T08:07:47.819Z,26.84
2018-09-17T08:10:24.847Z,26.78
2018-09-17T08:12:52.737Z,27.18
2018-09-17T08:15:21.426Z,27.26
2018-09-17T08:17:49.786Z,27.22
2018-09-17T08:20:17.510Z,27.02
2018-09-17T08:22:45.179Z,27.62
2018-09-17T08:25:12.902Z,27.58
2018-09-17T08:27:40.612Z,27.90
2018-09-17T08:30:08.926Z,28.09
2018-09-17T08:32:36.748Z,28.36
2018-09-17T08:35:04.876Z,28.40
2018-09-17T08:37:32.573Z,28.61
2018-09-17T08:40:00.560Z,28.81
2018-09-17T08:42:28.235Z,28.76
2018-09-17T08:44:55.922Z,29.00
2018-09-17T08:47:23.733Z,29.88
2018-09-17T08:49:51.408Z,30.41
2018-09-17T08:52:19.149Z,29.98
2018-09-17T08:54:52.325Z,29.26
2018-09-17T08:57:25.618Z,30.49
2018-09-17T08:59:58.899Z,30.39
2018-09-17T09:02:32.154Z,31.17
2018-09-17T09:05:05.351Z,31.36
2018-09-17T09:07:42.386Z,31.43
2018-09-17T09:10:15.762Z,30.58
2018-09-17T09:12:47.970Z,30.92
2018-09-17T09:15:16.430Z,30.97
2018-09-17T09:17:44.086Z,30.75
2018-09-17T09:20:11.822Z,30.60
2018-09-17T09:22:39.593Z,30.28
2018-09-17T09:25:07.396Z,30.56
2018-09-17T09:27:35.073Z,30.44
2018-09-17T09:30:02.853Z,30.14
2018-09-17T09:32:30.605Z,29.73
2018-09-17T09:34:58.269Z,30.19
2018-09-17T09:37:25.967Z,30.63
2018-09-17T09:39:53.638Z,30.46
2018-09-17T09:42:21.306Z,30.18
2018-09-17T09:44:49.019Z,29.97
2018-09-17T09:47:16.699Z,29.50
2018-09-17T09:49:44.439Z,29.09
2018-09-17T09:52:12.207Z,29.06
2018-09-17T09:54:39.902Z,29.02
2018-09-17T09:57:07.634Z,29.98
2018-09-17T09:59:36.060Z,30.62
2018-09-17T10:02:09.423Z,30.43
2018-09-17T10:04:37.128Z,30.46
2018-09-17T10:07:04.850Z,30.84
2018-09-17T10:09:38.160Z,31.86
2018-09-17T10:12:11.270Z,32.46
2018-09-17T10:14:44.474Z,31.36
2018-09-17T10:17:17.636Z,30.61
2018-09-17T10:19:49.558Z,30.82
2018-09-17T10:22:17.670Z,31.82
2018-09-17T10:24:45.371Z,32.63
2018-09-17T10:27:13.337Z,33.08
2018-09-17T10:29:41.022Z,33.50
2018-09-17T10:32:08.763Z,33.48
2018-09-17T10:34:36.494Z,33.30
2018-09-17T10:37:04.213Z,33.11
2018-09-17T10:39:31.901Z,33.18
2018-09-17T10:41:59.652Z,32.55
2018-09-17T10:44:27.311Z,32.15
2018-09-17T10:46:55.018Z,31.73
2018-09-17T10:49:22.711Z,31.95
2018-09-17T10:51:50.389Z,31.58
2018-09-17T10:54:18.107Z,31.27
2018-09-17T10:56:45.803Z,31.35
2018-09-17T10:59:13.466Z,31.67
2018-09-17T11:01:41.229Z,31.27
2018-09-17T11:04:08.933Z,31.24
2018-09-17T11:06:36.626Z,32.01
2018-09-17T11:09:06.927Z,33.07
2018-09-17T11:11:34.634Z,33.34
2018-09-17T11:14:02.354Z,33.06
2018-09-17T11:16:30.048Z,31.71
2018-09-17T11:18:57.749Z,33.03
2018-09-17T11:21:25.474Z,33.22
2018-09-17T11:23:53.239Z,33.57
2018-09-17T11:26:20.983Z,33.95
2018-09-17T11:28:48.682Z,34.38
2018-09-17T11:31:16.382Z,34.43
2018-09-17T11:33:44.086Z,34.11
2018-09-17T11:36:11.779Z,34.06
2018-09-17T11:38:39.514Z,33.79
2018-09-17T11:41:07.301Z,32.82
2018-09-17T11:43:34.982Z,32.26
2018-09-17T11:46:02.750Z,32.57
2018-09-17T11:48:30.505Z,33.37
2018-09-17T11:50:58.178Z,33.11
2018-09-17T11:53:25.875Z,33.25
2018-09-17T11:55:53.856Z,33.29
2018-09-17T11:58:21.511Z,32.87
2018-09-17T12:00:54.590Z,32.22
2018-09-17T12:03:27.821Z,32.78
2018-09-17T12:05:58.462Z,33.33
2018-09-17T12:08:26.122Z,33.38
2018-09-17T12:10:53.809Z,32.50
2018-09-17T12:13:21.636Z,32.47
2018-09-17T12:15:49.365Z,33.02
2018-09-17T12:18:17.058Z,33.87
2018-09-17T12:20:44.882Z,33.90
2018-09-17T12:23:12.613Z,33.72
2018-09-17T12:25:40.333Z,32.22
2018-09-17T12:28:08.172Z,32.82
2018-09-17T12:30:35.979Z,32.48
2018-09-17T12:33:03.708Z,32.56
2018-09-17T12:35:31.446Z,32.59
2018-09-17T12:37:59.201Z,33.28
2018-09-17T12:40:27.541Z,32.77
2018-09-17T12:42:55.498Z,32.42
2018-09-17T12:45:23.989Z,31.87
2018-09-17T12:47:52.082Z,32.33
2018-09-17T12:50:19.902Z,32.91
2018-09-17T12:52:47.695Z,33.29
2018-09-17T12:55:15.453Z,33.47
2018-09-17T12:57:43.222Z,34.03
2018-09-17T13:00:11.073Z,32.61
2018-09-17T13:02:39.014Z,33.25
2018-09-17T13:05:07.009Z,33.25
2018-09-17T13:07:34.761Z,33.36
2018-09-17T13:10:02.507Z,33.22
2018-09-17T13:12:30.340Z,33.80
2018-09-17T13:14:58.111Z,34.12
2018-09-17T13:17:25.861Z,32.59
2018-09-17T13:19:53.686Z,32.57
2018-09-17T13:22:21.555Z,32.34
2018-09-17T13:24:49.419Z,32.32
2018-09-17T13:27:17.937Z,32.05
2018-09-17T13:29:45.641Z,32.23
2018-09-17T13:32:13.375Z,32.27
2018-09-17T13:34:41.218Z,32.92
2018-09-17T13:37:09.386Z,32.70
2018-09-17T13:39:37.247Z,32.41
2018-09-17T13:42:04.921Z,32.43
2018-09-17T13:44:32.835Z,31.84
2018-09-17T13:47:00.449Z,30.94
2018-09-17T13:49:28.213Z,31.32
2018-09-17T13:51:56.145Z,31.37
2018-09-17T13:54:23.862Z,31.31
2018-09-17T13:56:51.621Z,31.43
2018-09-17T13:59:19.392Z,31.78
2018-09-17T14:01:47.150Z,31.33
2018-09-17T14:04:14.935Z,31.05
2018-09-17T14:06:42.575Z,31.44
2018-09-17T14:09:11.869Z,31.93
2018-09-17T14:11:40.528Z,31.77
2018-09-17T14:14:08.258Z,31.83
2018-09-17T14:16:36.130Z,31.50
2018-09-17T14:19:04.089Z,31.91
2018-09-17T14:21:31.825Z,31.42
2018-09-17T14:23:59.674Z,31.04
2018-09-17T14:26:27.983Z,30.71
2018-09-17T14:28:55.759Z,30.57
2018-09-17T14:31:28.859Z,30.89
2018-09-17T14:33:56.612Z,31.30
2018-09-17T14:36:24.401Z,31.68
2018-09-17T14:38:52.138Z,31.75
2018-09-17T14:41:19.893Z,31.22
2018-09-17T14:43:47.737Z,30.64
2018-09-17T14:46:15.689Z,30.90
2018-09-17T14:48:43.379Z,31.28
2018-09-17T14:51:11.109Z,31.32
2018-09-17T14:53:38.983Z,31.02
2018-09-17T14:56:06.677Z,30.57
2018-09-17T14:58:34.405Z,30.26
2018-09-17T15:01:02.227Z,30.86
2018-09-17T15:03:29.926Z,31.04
2018-09-17T15:05:57.664Z,31.22
2018-09-17T15:08:25.466Z,31.34
2018-09-17T15:10:53.227Z,31.45
2018-09-17T15:13:20.906Z,31.42
2018-09-17T15:15:54.054Z,30.99
2018-09-17T15:18:21.793Z,31.02
2018-09-17T15:20:49.497Z,30.92
2018-09-17T15:23:17.266Z,30.39
2018-09-17T15:25:45.233Z,30.29
2018-09-17T15:28:12.960Z,29.92
2018-09-17T15:30:40.763Z,30.05
2018-09-17T15:33:08.496Z,30.18
2018-09-17T15:35:36.262Z,29.92
2018-09-17T15:38:04.086Z,29.62
2018-09-17T15:40:31.957Z,29.43
2018-09-17T15:42:59.696Z,29.26
2018-09-17T15:45:27.530Z,29.07
2018-09-17T15:47:55.233Z,28.74
2018-09-17T15:50:23.179Z,28.73
2018-09-17T15:52:51.010Z,28.69
2018-09-17T15:55:18.701Z,28.51
2018-09-17T15:57:46.539Z,28.52
2018-09-17T16:00:14.304Z,28.58
2018-09-17T16:02:42.073Z,28.42
2018-09-17T16:05:09.821Z,28.26
2018-09-17T16:07:37.649Z,27.93
2018-09-17T16:10:06.294Z,27.85
2018-09-17T16:12:34.041Z,27.62
2018-09-17T16:15:01.874Z,27.19
2018-09-17T16:17:29.581Z,27.08
2018-09-17T16:19:57.362Z,26.89
2018-09-17T16:22:25.189Z,26.53
2018-09-17T16:24:52.898Z,26.48
2018-09-17T16:27:20.617Z,26.24
2018-09-17T16:29:48.401Z,26.30
2018-09-17T16:32:16.094Z,26.28
2018-09-17T16:34:43.798Z,26.15
2018-09-17T16:37:11.549Z,26.00
2018-09-17T16:39:39.412Z,25.76
2018-09-17T16:42:07.194Z,25.59
2018-09-17T16:44:34.998Z,25.56
2018-09-17T16:47:02.826Z,25.37
2018-09-17T16:49:30.572Z,25.21
2018-09-17T16:51:58.349Z,24.97
2018-09-17T16:54:26.062Z,24.71
2018-09-17T16:56:53.767Z,24.55
2018-09-17T16:59:21.521Z,24.45
2018-09-17T17:01:49.272Z,24.60
2018-09-17T17:04:17.067Z,24.61
2018-09-17T17:06:45.127Z,24.59
2018-09-17T17:09:12.839Z,24.55
2018-09-17T17:11:40.536Z,24.50
2018-09-17T17:14:08.302Z,24.53
2018-09-17T17:16:36.028Z,24.33
2018-09-17T17:19:03.736Z,24.31
2018-09-17T17:21:31.454Z,24.27
2018-09-17T17:23:59.166Z,24.33
2018-09-17T17:26:26.816Z,24.30
2018-09-17T17:28:54.600Z,24.33
2018-09-17T17:31:22.282Z,24.18
2018-09-17T17:33:50.016Z,24.19
2018-09-17T17:36:17.683Z,24.23
2018-09-17T17:38:45.383Z,24.15
2018-09-17T17:41:13.079Z,24.11
2018-09-17T17:43:40.799Z,23.96
2018-09-17T17:46:08.651Z,23.89
2018-09-17T17:48:36.234Z,23.85
2018-09-17T17:51:03.996Z,23.89
2018-09-17T17:53:31.668Z,23.81
2018-09-17T17:55:59.345Z,23.63
2018-09-17T17:58:27.077Z,23.59
2018-09-17T18:00:54.820Z,23.29
2018-09-17T18:03:22.447Z,23.27
2018-09-17T18:05:50.268Z,23.38
2018-09-17T18:08:17.951Z,23.34
2018-09-17T18:10:45.625Z,23.19
2018-09-17T18:13:13.459Z,23.29
2018-09-17T18:15:41.150Z,23.12
2018-09-17T18:18:08.887Z,23.13
2018-09-17T18:20:36.617Z,23.03
2018-09-17T18:23:04.303Z,22.86
2018-09-17T18:25:31.989Z,22.80
2018-09-17T18:27:59.703Z,22.68
2018-09-17T18:30:27.392Z,22.80
2018-09-17T18:32:55.138Z,22.89
2018-09-17T18:35:22.807Z,23.01
2018-09-17T18:37:50.492Z,23.06
2018-09-17T18:40:18.192Z,23.15
2018-09-17T18:42:45.954Z,23.18
2018-09-17T18:45:14.538Z,23.06
2018-09-17T18:47:42.266Z,22.97
2018-09-17T18:50:10.153Z,22.93
2018-09-17T18:52:37.833Z,22.93
2018-09-17T18:55:05.552Z,22.84
2018-09-17T18:57:33.380Z,22.77
2018-09-17T19:00:01.041Z,22.69
2018-09-17T19:02:28.673Z,22.51
2018-09-17T19:04:56.399Z,22.36
2018-09-17T19:07:24.085Z,22.21
2018-09-17T19:09:51.777Z,22.21
2018-09-17T19:12:20.436Z,22.20
2018-09-17T19:14:53.646Z,22.13
2018-09-17T19:17:26.872Z,21.99
2018-09-17T19:19:54.652Z,22.33
2018-09-17T19:22:27.920Z,22.39
2018-09-17T19:24:55.509Z,22.31
2018-09-17T19:28:30.192Z,22.41
2018-09-17T19:30:57.894Z,22.53
2018-09-17T19:33:25.676Z,22.59
2018-09-17T19:35:53.471Z,22.60
2018-09-17T19:38:26.662Z,22.68
2018-09-17T19:40:54.398Z,22.61
2018-09-17T19:43:22.364Z,22.69
2018-09-17T19:45:55.786Z,22.50
2018-09-17T19:48:23.422Z,22.45
2018-09-17T19:50:56.512Z,22.49
2018-09-17T19:53:24.190Z,22.43
2018-09-17T19:55:51.899Z,22.09
2018-09-17T19:58:25.174Z,22.11
2018-09-17T20:00:52.932Z,22.02
2018-09-17T20:03:20.588Z,22.07
2018-09-17T20:05:53.716Z,21.90
2018-09-17T20:08:21.498Z,22.13
2018-09-17T20:10:49.174Z,22.04
2018-09-17T20:13:16.882Z,22.27
2018-09-17T20:15:44.578Z,22.14
2018-09-17T20:18:12.249Z,22.09
2018-09-17T20:20:39.966Z,22.14
2018-09-17T20:23:07.662Z,22.11
2018-09-17T20:25:35.377Z,22.11
2018-09-17T20:28:03.206Z,22.10
2018-09-17T20:30:30.975Z,22.09
2018-09-17T20:32:58.751Z,22.11
2018-09-17T20:35:26.530Z,22.20
2018-09-17T20:37:54.213Z,22.15
2018-09-17T20:40:21.895Z,22.13
2018-09-17T20:42:49.604Z,22.15
2018-09-17T20:45:17.272Z,22.15
2018-09-17T20:47:44.940Z,22.15
2018-09-17T20:50:12.660Z,22.08
2018-09-17T20:52:40.386Z,21.98
2018-09-17T20:55:08.107Z,22.00
2018-09-17T20:57:35.851Z,21.73
2018-09-17T21:00:03.584Z,21.67
2018-09-17T21:02:31.298Z,21.64
2018-09-17T21:04:59.000Z,21.98
2018-09-17T21:07:26.788Z,21.96
2018-09-17T21:09:54.401Z,21.97
2018-09-17T21:12:22.212Z,21.85
2018-09-17T21:14:49.874Z,21.87
2018-09-17T21:17:17.577Z,21.74
2018-09-17T21:19:45.319Z,21.57
2018-09-17T21:22:13.112Z,21.42
2018-09-17T21:24:40.856Z,21.52
2018-09-17T21:27:08.613Z,21.51
2018-09-17T21:29:36.301Z,21.72
2018-09-17T21:32:04.015Z,21.35
2018-09-17T21:34:31.814Z,21.17
2018-09-17T21:36:59.601Z,21.35
2018-09-17T21:39:27.330Z,21.16
2018-09-17T21:41:55.070Z,21.03
2018-09-17T21:44:22.781Z,20.74
2018-09-17T21:46:50.513Z,20.69
2018-09-17T21:51:51.663Z,20.97
2018-09-17T21:54:19.422Z,20.88
2018-09-17T21:56:47.137Z,20.85
2018-09-17T21:59:14.925Z,20.75
2018-09-17T22:01:42.669Z,20.70
2018-09-17T22:04:10.379Z,20.46
2018-09-17T22:06:38.085Z,20.65
2018-09-17T22:09:06.807Z,20.57
2018-09-17T22:11:34.509Z,20.38
2018-09-17T22:14:02.234Z,20.17
2018-09-17T22:16:29.918Z,20.02
2018-09-17T22:18:57.578Z,20.01
2018-09-17T22:21:25.278Z,19.97
2018-09-17T22:23:52.955Z,19.98
2018-09-17T22:26:20.621Z,20.04
2018-09-17T22:28:48.348Z,19.96
2018-09-17T22:31:16.042Z,20.11
2018-09-17T22:33:43.717Z,20.20
2018-09-17T22:36:11.429Z,20.35
2018-09-17T22:38:39.093Z,20.38
2018-09-17T22:41:06.766Z,20.31
2018-09-17T22:43:34.452Z,20.35
2018-09-17T22:46:02.124Z,20.44
2018-09-17T22:48:29.824Z,20.42
2018-09-17T22:50:57.525Z,20.40
2018-09-17T22:53:25.335Z,20.40
2018-09-17T22:55:53.019Z,20.34
2018-09-17T22:58:20.719Z,20.22
2018-09-17T23:00:48.399Z,20.21
2018-09-17T23:03:16.080Z,19.97
2018-09-17T23:05:43.790Z,20.00
2018-09-17T23:08:11.446Z,19.73
2018-09-17T23:10:39.106Z,19.69
2018-09-17T23:13:06.798Z,19.65
2018-09-17T23:15:34.512Z,19.90
2018-09-17T23:18:02.177Z,19.87
2018-09-17T23:20:30.078Z,19.80
2018-09-17T23:22:57.947Z,19.66
2018-09-17T23:25:25.800Z,19.42
2018-09-17T23:27:53.628Z,19.59
2018-09-17T23:30:21.501Z,19.61
2018-09-17T23:32:49.324Z,19.67
2018-09-17T23:35:17.200Z,19.54
2018-09-17T23:37:44.988Z,19.51
2018-09-17T23:40:12.922Z,19.64
2018-09-17T23:42:40.725Z,19.69
2018-09-17T23:45:08.525Z,19.82
2018-09-17T23:47:36.287Z,19.73
2018-09-17T23:50:04.083Z,19.86
2018-09-17T23:52:31.791Z,19.76
2018-09-17T23:54:59.474Z,19.62
2018-09-17T23:57:27.181Z,19.67
2018-09-17T23:59:54.872Z,19.66
